sensor_id;sensor_type;location;lat;lon;timestamp;temperature;humidity
66057;DHT22;52842;52.666;5.202;2022-11-25T00:02:03;18.40;67.90
66057;DHT22;52842;52.666;5.202;2022-11-25T00:04:29;18.40;68.00
66057;DHT22;52842;52.666;5.202;2022-11-25T00:07:01;18.30;68.10
66057;DHT22;52842;52.666;5.202;2022-11-25T00:09:29;18.30;68.20
66057;DHT22;52842;52.666;5.202;2022-11-25T00:11:55;18.30;68.30
66057;DHT22;52842;52.666;5.202;2022-11-25T00:14:22;18.30;68.30
66057;DHT22;52842;52.666;5.202;2022-11-25T00:16:48;18.30;68.30
66057;DHT22;52842;52.666;5.202;2022-11-25T00:19:15;18.30;68.30
66057;DHT22;52842;52.666;5.202;2022-11-25T00:21:42;18.30;69.10
66057;DHT22;52842;52.666;5.202;2022-11-25T00:24:09;18.30;68.30
66057;DHT22;52842;52.666;5.202;2022-11-25T00:26:38;18.30;68.20
66057;DHT22;52842;52.666;5.202;2022-11-25T00:29:06;18.40;68.20
66057;DHT22;52842;52.666;5.202;2022-11-25T00:31:34;18.40;68.20
66057;DHT22;52842;52.666;5.202;2022-11-25T00:34:01;18.40;68.10
66057;DHT22;52842;52.666;5.202;2022-11-25T00:36:28;18.40;68.10
66057;DHT22;52842;52.666;5.202;2022-11-25T00:38:55;18.40;68.00
66057;DHT22;52842;52.666;5.202;2022-11-25T00:41:22;18.40;68.10
66057;DHT22;52842;52.666;5.202;2022-11-25T00:44:09;18.40;68.00
66057;DHT22;52842;52.666;5.202;2022-11-25T00:46:54;18.40;68.00
66057;DHT22;52842;52.666;5.202;2022-11-25T00:49:20;18.40;68.00
66057;DHT22;52842;52.666;5.202;2022-11-25T00:51:47;18.40;67.90
66057;DHT22;52842;52.666;5.202;2022-11-25T00:54:14;18.40;67.90
66057;DHT22;52842;52.666;5.202;2022-11-25T00:56:40;18.40;67.90
66057;DHT22;52842;52.666;5.202;2022-11-25T00:59:08;18.40;67.90
66057;DHT22;52842;52.666;5.202;2022-11-25T01:01:35;18.40;67.90
66057;DHT22;52842;52.666;5.202;2022-11-25T01:04:02;18.40;67.90
66057;DHT22;52842;52.666;5.202;2022-11-25T01:06:29;18.40;68.00
66057;DHT22;52842;52.666;5.202;2022-11-25T01:08:55;18.40;68.00
66057;DHT22;52842;52.666;5.202;2022-11-25T01:11:22;18.30;67.90
66057;DHT22;52842;52.666;5.202;2022-11-25T01:13:49;18.30;68.00
66057;DHT22;52842;52.666;5.202;2022-11-25T01:16:19;18.30;68.10
66057;DHT22;52842;52.666;5.202;2022-11-25T01:18:46;18.30;68.10
66057;DHT22;52842;52.666;5.202;2022-11-25T01:21:13;18.30;68.10
66057;DHT22;52842;52.666;5.202;2022-11-25T01:23:41;18.30;68.10
66057;DHT22;52842;52.666;5.202;2022-11-25T01:26:09;18.30;68.10
66057;DHT22;52842;52.666;5.202;2022-11-25T01:28:36;18.30;68.20
66057;DHT22;52842;52.666;5.202;2022-11-25T01:31:03;18.30;68.10
66057;DHT22;52842;52.666;5.202;2022-11-25T01:33:32;18.30;68.10
66057;DHT22;52842;52.666;5.202;2022-11-25T01:35:59;18.40;68.10
66057;DHT22;52842;52.666;5.202;2022-11-25T01:38:27;18.40;68.00
66057;DHT22;52842;52.666;5.202;2022-11-25T01:40:53;18.40;67.90
66057;DHT22;52842;52.666;5.202;2022-11-25T01:43:20;18.40;68.00
66057;DHT22;52842;52.666;5.202;2022-11-25T01:45:47;18.40;67.90
66057;DHT22;52842;52.666;5.202;2022-11-25T01:48:14;18.40;67.90
66057;DHT22;52842;52.666;5.202;2022-11-25T01:50:43;18.40;67.90
66057;DHT22;52842;52.666;5.202;2022-11-25T01:53:11;18.40;67.90
66057;DHT22;52842;52.666;5.202;2022-11-25T01:55:39;18.40;67.80
66057;DHT22;52842;52.666;5.202;2022-11-25T01:58:07;18.40;67.90
66057;DHT22;52842;52.666;5.202;2022-11-25T02:00:35;18.40;67.80
66057;DHT22;52842;52.666;5.202;2022-11-25T02:03:03;18.40;67.90
66057;DHT22;52842;52.666;5.202;2022-11-25T02:05:31;18.40;67.80
66057;DHT22;52842;52.666;5.202;2022-11-25T02:08:02;18.40;67.80
66057;DHT22;52842;52.666;5.202;2022-11-25T02:10:29;18.40;67.80
66057;DHT22;52842;52.666;5.202;2022-11-25T02:12:57;18.40;67.80
66057;DHT22;52842;52.666;5.202;2022-11-25T02:15:24;18.40;67.80
66057;DHT22;52842;52.666;5.202;2022-11-25T02:17:51;18.30;67.80
66057;DHT22;52842;52.666;5.202;2022-11-25T02:20:18;18.30;67.80
66057;DHT22;52842;52.666;5.202;2022-11-25T02:22:49;18.30;67.90
66057;DHT22;52842;52.666;5.202;2022-11-25T02:25:19;18.30;67.90
66057;DHT22;52842;52.666;5.202;2022-11-25T02:27:48;18.30;67.90
66057;DHT22;52842;52.666;5.202;2022-11-25T02:30:16;18.30;68.00
66057;DHT22;52842;52.666;5.202;2022-11-25T02:32:43;18.30;68.00
66057;DHT22;52842;52.666;5.202;2022-11-25T02:38:04;18.30;68.00
66057;DHT22;52842;52.666;5.202;2022-11-25T02:40:33;18.30;67.90
66057;DHT22;52842;52.666;5.202;2022-11-25T02:43:01;18.40;67.90
66057;DHT22;52842;52.666;5.202;2022-11-25T02:45:38;18.40;67.90
66057;DHT22;52842;52.666;5.202;2022-11-25T02:48:06;18.40;67.90
66057;DHT22;52842;52.666;5.202;2022-11-25T02:50:33;18.40;67.80
66057;DHT22;52842;52.666;5.202;2022-11-25T02:53:00;18.40;67.80
66057;DHT22;52842;52.666;5.202;2022-11-25T02:55:27;18.40;67.70
66057;DHT22;52842;52.666;5.202;2022-11-25T02:57:55;18.40;67.70
66057;DHT22;52842;52.666;5.202;2022-11-25T03:00:21;18.40;67.70
66057;DHT22;52842;52.666;5.202;2022-11-25T03:02:49;18.40;67.70
66057;DHT22;52842;52.666;5.202;2022-11-25T03:05:17;18.40;67.70
66057;DHT22;52842;52.666;5.202;2022-11-25T03:07:43;18.40;67.60
66057;DHT22;52842;52.666;5.202;2022-11-25T03:10:10;18.40;67.70
66057;DHT22;52842;52.666;5.202;2022-11-25T03:12:37;18.40;67.70
66057;DHT22;52842;52.666;5.202;2022-11-25T03:15:06;18.40;67.70
66057;DHT22;52842;52.666;5.202;2022-11-25T03:17:32;18.30;67.70
66057;DHT22;52842;52.666;5.202;2022-11-25T03:19:59;18.30;67.70
66057;DHT22;52842;52.666;5.202;2022-11-25T03:22:26;18.30;67.80
66057;DHT22;52842;52.666;5.202;2022-11-25T03:24:52;18.30;67.80
66057;DHT22;52842;52.666;5.202;2022-11-25T03:27:19;18.30;67.80
66057;DHT22;52842;52.666;5.202;2022-11-25T03:29:46;18.30;67.90
66057;DHT22;52842;52.666;5.202;2022-11-25T03:32:15;18.30;67.90
66057;DHT22;52842;52.666;5.202;2022-11-25T03:34:41;18.30;67.90
66057;DHT22;52842;52.666;5.202;2022-11-25T03:37:08;18.30;68.00
66057;DHT22;52842;52.666;5.202;2022-11-25T03:39:35;18.30;67.90
66057;DHT22;52842;52.666;5.202;2022-11-25T03:42:01;18.30;67.80
66057;DHT22;52842;52.666;5.202;2022-11-25T03:44:28;18.40;67.80
66057;DHT22;52842;52.666;5.202;2022-11-25T03:46:54;18.40;67.80
66057;DHT22;52842;52.666;5.202;2022-11-25T03:49:22;18.40;67.70
66057;DHT22;52842;52.666;5.202;2022-11-25T03:51:49;18.40;67.70
66057;DHT22;52842;52.666;5.202;2022-11-25T03:54:16;18.40;67.70
66057;DHT22;52842;52.666;5.202;2022-11-25T03:56:43;18.40;67.70
66057;DHT22;52842;52.666;5.202;2022-11-25T03:59:10;18.40;67.70
66057;DHT22;52842;52.666;5.202;2022-11-25T04:01:36;18.40;67.70
66057;DHT22;52842;52.666;5.202;2022-11-25T04:04:03;18.40;67.60
66057;DHT22;52842;52.666;5.202;2022-11-25T04:06:31;18.40;67.60
66057;DHT22;52842;52.666;5.202;2022-11-25T04:08:58;18.40;67.70
66057;DHT22;52842;52.666;5.202;2022-11-25T04:11:25;18.40;67.60
66057;DHT22;52842;52.666;5.202;2022-11-25T04:14:11;18.40;67.60
66057;DHT22;52842;52.666;5.202;2022-11-25T04:16:37;18.40;67.60
66057;DHT22;52842;52.666;5.202;2022-11-25T04:19:04;18.40;67.60
66057;DHT22;52842;52.666;5.202;2022-11-25T04:21:32;18.40;67.70
66057;DHT22;52842;52.666;5.202;2022-11-25T04:23:58;18.40;67.70
66057;DHT22;52842;52.666;5.202;2022-11-25T04:26:25;18.30;67.60
66057;DHT22;52842;52.666;5.202;2022-11-25T04:28:52;18.30;67.70
66057;DHT22;52842;52.666;5.202;2022-11-25T04:31:18;18.30;67.70
66057;DHT22;52842;52.666;5.202;2022-11-25T04:33:45;18.30;67.70
66057;DHT22;52842;52.666;5.202;2022-11-25T04:36:12;18.30;67.80
66057;DHT22;52842;52.666;5.202;2022-11-25T04:38:40;18.30;67.80
66057;DHT22;52842;52.666;5.202;2022-11-25T04:41:06;18.30;67.80
66057;DHT22;52842;52.666;5.202;2022-11-25T04:43:33;18.30;67.80
66057;DHT22;52842;52.666;5.202;2022-11-25T04:46:00;18.30;67.80
66057;DHT22;52842;52.666;5.202;2022-11-25T04:48:27;18.30;67.80
66057;DHT22;52842;52.666;5.202;2022-11-25T04:50:54;18.30;67.80
66057;DHT22;52842;52.666;5.202;2022-11-25T04:53:20;18.40;67.80
66057;DHT22;52842;52.666;5.202;2022-11-25T04:55:48;18.40;67.70
66057;DHT22;52842;52.666;5.202;2022-11-25T04:58:15;18.40;67.70
66057;DHT22;52842;52.666;5.202;2022-11-25T05:01:02;18.40;67.70
66057;DHT22;52842;52.666;5.202;2022-11-25T05:03:27;18.40;67.60
66057;DHT22;52842;52.666;5.202;2022-11-25T05:05:54;18.40;68.40
66057;DHT22;52842;52.666;5.202;2022-11-25T05:08:21;18.40;67.70
66057;DHT22;52842;52.666;5.202;2022-11-25T05:10:49;18.40;67.70
66057;DHT22;52842;52.666;5.202;2022-11-25T05:13:15;18.40;67.60
66057;DHT22;52842;52.666;5.202;2022-11-25T05:15:42;18.40;67.60
66057;DHT22;52842;52.666;5.202;2022-11-25T05:18:09;18.40;67.60
66057;DHT22;52842;52.666;5.202;2022-11-25T05:20:35;18.40;67.50
66057;DHT22;52842;52.666;5.202;2022-11-25T05:23:02;18.40;67.50
66057;DHT22;52842;52.666;5.202;2022-11-25T05:25:29;18.40;67.50
66057;DHT22;52842;52.666;5.202;2022-11-25T05:27:57;18.40;67.50
66057;DHT22;52842;52.666;5.202;2022-11-25T05:30:23;18.40;67.50
66057;DHT22;52842;52.666;5.202;2022-11-25T05:32:50;18.40;67.50
66057;DHT22;52842;52.666;5.202;2022-11-25T05:35:17;18.30;67.50
66057;DHT22;52842;52.666;5.202;2022-11-25T05:37:44;18.30;67.60
66057;DHT22;52842;52.666;5.202;2022-11-25T05:40:11;18.30;67.60
66057;DHT22;52842;52.666;5.202;2022-11-25T05:42:37;18.30;67.70
66057;DHT22;52842;52.666;5.202;2022-11-25T05:45:06;18.30;67.70
66057;DHT22;52842;52.666;5.202;2022-11-25T05:47:33;18.30;67.70
66057;DHT22;52842;52.666;5.202;2022-11-25T05:50:00;18.30;67.70
66057;DHT22;52842;52.666;5.202;2022-11-25T05:52:26;18.30;67.70
66057;DHT22;52842;52.666;5.202;2022-11-25T05:54:53;18.30;67.70
66057;DHT22;52842;52.666;5.202;2022-11-25T05:57:20;18.30;67.60
66057;DHT22;52842;52.666;5.202;2022-11-25T05:59:46;18.30;67.60
66057;DHT22;52842;52.666;5.202;2022-11-25T06:02:14;18.40;67.60
66057;DHT22;52842;52.666;5.202;2022-11-25T06:04:41;18.40;67.60
66057;DHT22;52842;52.666;5.202;2022-11-25T06:07:08;18.40;67.60
66057;DHT22;52842;52.666;5.202;2022-11-25T06:09:34;18.40;67.50
66057;DHT22;52842;52.666;5.202;2022-11-25T06:12:01;18.40;67.50
66057;DHT22;52842;52.666;5.202;2022-11-25T06:14:28;18.40;67.40
66057;DHT22;52842;52.666;5.202;2022-11-25T06:16:54;18.50;67.50
66057;DHT22;52842;52.666;5.202;2022-11-25T06:19:22;18.50;67.50
66057;DHT22;52842;52.666;5.202;2022-11-25T06:21:49;18.50;67.50
66057;DHT22;52842;52.666;5.202;2022-11-25T06:24:16;18.50;67.50
66057;DHT22;52842;52.666;5.202;2022-11-25T06:26:43;18.50;67.50
66057;DHT22;52842;52.666;5.202;2022-11-25T06:29:09;18.50;67.40
66057;DHT22;52842;52.666;5.202;2022-11-25T06:31:36;18.50;67.40
66057;DHT22;52842;52.666;5.202;2022-11-25T06:34:03;18.50;67.40
66057;DHT22;52842;52.666;5.202;2022-11-25T06:36:32;18.50;67.40
66057;DHT22;52842;52.666;5.202;2022-11-25T06:38:58;18.50;67.40
66057;DHT22;52842;52.666;5.202;2022-11-25T06:41:25;18.50;67.40
66057;DHT22;52842;52.666;5.202;2022-11-25T06:43:52;18.50;67.40
66057;DHT22;52842;52.666;5.202;2022-11-25T06:46:19;18.50;67.50
66057;DHT22;52842;52.666;5.202;2022-11-25T06:48:45;18.40;67.40
66057;DHT22;52842;52.666;5.202;2022-11-25T06:51:12;18.40;67.40
66057;DHT22;52842;52.666;5.202;2022-11-25T06:53:41;18.40;67.40
66057;DHT22;52842;52.666;5.202;2022-11-25T06:56:09;18.40;67.40
66057;DHT22;52842;52.666;5.202;2022-11-25T06:58:36;18.40;67.50
66057;DHT22;52842;52.666;5.202;2022-11-25T07:01:03;18.40;67.50
66057;DHT22;52842;52.666;5.202;2022-11-25T07:03:31;18.40;67.60
66057;DHT22;52842;52.666;5.202;2022-11-25T07:05:58;18.30;67.60
66057;DHT22;52842;52.666;5.202;2022-11-25T07:08:25;18.30;67.70
66057;DHT22;52842;52.666;5.202;2022-11-25T07:10:53;18.30;67.80
66057;DHT22;52842;52.666;5.202;2022-11-25T07:13:20;18.40;67.90
66057;DHT22;52842;52.666;5.202;2022-11-25T07:15:46;18.40;67.90
66057;DHT22;52842;52.666;5.202;2022-11-25T07:18:13;18.40;68.00
66057;DHT22;52842;52.666;5.202;2022-11-25T07:20:40;18.50;68.10
66057;DHT22;52842;52.666;5.202;2022-11-25T07:23:06;18.50;68.20
66057;DHT22;52842;52.666;5.202;2022-11-25T07:25:33;18.50;68.30
66057;DHT22;52842;52.666;5.202;2022-11-25T07:28:01;18.60;68.40
66057;DHT22;52842;52.666;5.202;2022-11-25T07:30:28;18.60;68.40
66057;DHT22;52842;52.666;5.202;2022-11-25T07:32:54;18.60;68.40
66057;DHT22;52842;52.666;5.202;2022-11-25T07:35:21;18.60;68.50
66057;DHT22;52842;52.666;5.202;2022-11-25T07:37:48;18.60;68.50
66057;DHT22;52842;52.666;5.202;2022-11-25T07:40:14;18.60;68.60
66057;DHT22;52842;52.666;5.202;2022-11-25T07:42:41;18.60;68.60
66057;DHT22;52842;52.666;5.202;2022-11-25T07:45:09;18.70;68.80
66057;DHT22;52842;52.666;5.202;2022-11-25T07:47:36;18.70;68.80
66057;DHT22;52842;52.666;5.202;2022-11-25T07:50:03;18.70;68.90
66057;DHT22;52842;52.666;5.202;2022-11-25T07:52:30;18.80;68.80
66057;DHT22;52842;52.666;5.202;2022-11-25T07:54:57;18.90;68.60
66057;DHT22;52842;52.666;5.202;2022-11-25T07:57:23;18.90;68.40
66057;DHT22;52842;52.666;5.202;2022-11-25T07:59:50;19.00;68.20
66057;DHT22;52842;52.666;5.202;2022-11-25T08:02:18;19.00;68.00
66057;DHT22;52842;52.666;5.202;2022-11-25T08:04:46;19.10;67.90
66057;DHT22;52842;52.666;5.202;2022-11-25T08:07:13;19.10;67.60
66057;DHT22;52842;52.666;5.202;2022-11-25T08:09:40;19.10;67.70
66057;DHT22;52842;52.666;5.202;2022-11-25T08:12:06;19.10;67.80
66057;DHT22;52842;52.666;5.202;2022-11-25T08:14:33;19.10;67.90
66057;DHT22;52842;52.666;5.202;2022-11-25T08:17:00;19.10;68.00
66057;DHT22;52842;52.666;5.202;2022-11-25T08:19:30;19.10;68.00
66057;DHT22;52842;52.666;5.202;2022-11-25T08:21:56;19.20;68.00
66057;DHT22;52842;52.666;5.202;2022-11-25T08:24:23;19.20;67.90
66057;DHT22;52842;52.666;5.202;2022-11-25T08:26:50;19.20;67.90
66057;DHT22;52842;52.666;5.202;2022-11-25T08:29:18;19.20;67.90
66057;DHT22;52842;52.666;5.202;2022-11-25T08:31:45;19.10;68.00
66057;DHT22;52842;52.666;5.202;2022-11-25T08:34:15;19.10;68.20
66057;DHT22;52842;52.666;5.202;2022-11-25T08:36:43;19.00;68.30
66057;DHT22;52842;52.666;5.202;2022-11-25T08:39:10;18.90;68.50
66057;DHT22;52842;52.666;5.202;2022-11-25T08:41:36;18.90;68.70
66057;DHT22;52842;52.666;5.202;2022-11-25T08:44:04;18.90;68.70
66057;DHT22;52842;52.666;5.202;2022-11-25T08:46:32;18.90;68.90
66057;DHT22;52842;52.666;5.202;2022-11-25T08:49:00;18.80;68.90
66057;DHT22;52842;52.666;5.202;2022-11-25T08:51:28;18.80;69.00
66057;DHT22;52842;52.666;5.202;2022-11-25T08:53:56;18.80;69.10
66057;DHT22;52842;52.666;5.202;2022-11-25T08:56:24;18.90;69.80
66057;DHT22;52842;52.666;5.202;2022-11-25T08:58:51;18.90;68.90
66057;DHT22;52842;52.666;5.202;2022-11-25T09:01:18;18.90;68.70
66057;DHT22;52842;52.666;5.202;2022-11-25T09:03:46;18.90;68.70
66057;DHT22;52842;52.666;5.202;2022-11-25T09:06:14;18.90;68.50
66057;DHT22;52842;52.666;5.202;2022-11-25T09:08:41;19.00;68.40
66057;DHT22;52842;52.666;5.202;2022-11-25T09:11:09;19.00;68.30
66057;DHT22;52842;52.666;5.202;2022-11-25T09:13:36;19.00;68.10
66057;DHT22;52842;52.666;5.202;2022-11-25T09:16:03;18.90;68.00
66057;DHT22;52842;52.666;5.202;2022-11-25T09:18:30;18.90;67.80
66057;DHT22;52842;52.666;5.202;2022-11-25T09:20:57;18.90;67.80
66057;DHT22;52842;52.666;5.202;2022-11-25T09:23:24;18.90;67.70
66057;DHT22;52842;52.666;5.202;2022-11-25T09:25:51;18.90;67.70
66057;DHT22;52842;52.666;5.202;2022-11-25T09:28:20;18.80;67.60
66057;DHT22;52842;52.666;5.202;2022-11-25T09:30:46;18.80;67.60
66057;DHT22;52842;52.666;5.202;2022-11-25T09:33:13;18.70;67.70
66057;DHT22;52842;52.666;5.202;2022-11-25T09:35:40;18.80;68.00
66057;DHT22;52842;52.666;5.202;2022-11-25T09:38:07;18.70;68.10
66057;DHT22;52842;52.666;5.202;2022-11-25T09:40:34;18.70;68.20
66057;DHT22;52842;52.666;5.202;2022-11-25T09:43:03;18.70;68.20
66057;DHT22;52842;52.666;5.202;2022-11-25T09:45:53;18.70;68.50
66057;DHT22;52842;52.666;5.202;2022-11-25T09:48:42;18.60;68.90
66057;DHT22;52842;52.666;5.202;2022-11-25T09:51:15;18.60;69.00
66057;DHT22;52842;52.666;5.202;2022-11-25T09:53:45;18.60;69.10
66057;DHT22;52842;52.666;5.202;2022-11-25T09:56:14;18.60;69.10
66057;DHT22;52842;52.666;5.202;2022-11-25T09:58:46;18.50;68.90
66057;DHT22;52842;52.666;5.202;2022-11-25T10:01:16;18.50;68.90
66057;DHT22;52842;52.666;5.202;2022-11-25T10:03:44;18.50;68.90
66057;DHT22;52842;52.666;5.202;2022-11-25T10:06:13;18.50;68.80
66057;DHT22;52842;52.666;5.202;2022-11-25T10:08:40;18.50;68.80
66057;DHT22;52842;52.666;5.202;2022-11-25T10:11:13;18.50;68.70
66057;DHT22;52842;52.666;5.202;2022-11-25T10:13:43;18.50;68.90
66057;DHT22;52842;52.666;5.202;2022-11-25T10:16:13;18.40;68.80
66057;DHT22;52842;52.666;5.202;2022-11-25T10:18:46;18.40;69.00
66057;DHT22;52842;52.666;5.202;2022-11-25T10:21:19;18.40;69.10
66057;DHT22;52842;52.666;5.202;2022-11-25T10:23:45;18.40;69.30
66057;DHT22;52842;52.666;5.202;2022-11-25T10:26:13;18.40;69.50
66057;DHT22;52842;52.666;5.202;2022-11-25T10:28:40;18.40;69.70
66057;DHT22;52842;52.666;5.202;2022-11-25T10:31:15;18.40;69.80
66057;DHT22;52842;52.666;5.202;2022-11-25T10:33:43;18.40;69.80
66057;DHT22;52842;52.666;5.202;2022-11-25T10:36:13;18.40;69.80
66057;DHT22;52842;52.666;5.202;2022-11-25T10:38:43;18.40;69.80
66057;DHT22;52842;52.666;5.202;2022-11-25T10:41:12;18.40;69.80
66057;DHT22;52842;52.666;5.202;2022-11-25T10:43:41;18.50;69.90
66057;DHT22;52842;52.666;5.202;2022-11-25T10:46:09;18.50;70.00
66057;DHT22;52842;52.666;5.202;2022-11-25T10:48:44;18.50;70.10
66057;DHT22;52842;52.666;5.202;2022-11-25T10:51:19;18.50;70.10
66057;DHT22;52842;52.666;5.202;2022-11-25T10:56:41;18.50;70.10
66057;DHT22;52842;52.666;5.202;2022-11-25T10:59:11;18.50;70.10
66057;DHT22;52842;52.666;5.202;2022-11-25T11:01:38;18.50;70.10
66057;DHT22;52842;52.666;5.202;2022-11-25T11:04:09;18.50;70.10
66057;DHT22;52842;52.666;5.202;2022-11-25T11:06:39;18.60;69.90
66057;DHT22;52842;52.666;5.202;2022-11-25T11:09:08;18.70;69.70
66057;DHT22;52842;52.666;5.202;2022-11-25T11:11:54;18.70;69.50
66057;DHT22;52842;52.666;5.202;2022-11-25T11:14:21;18.80;69.30
66057;DHT22;52842;52.666;5.202;2022-11-25T11:16:50;18.80;69.10
66057;DHT22;52842;52.666;5.202;2022-11-25T11:19:21;18.80;69.00
66057;DHT22;52842;52.666;5.202;2022-11-25T11:21:50;18.80;68.90
66057;DHT22;52842;52.666;5.202;2022-11-25T11:24:27;18.80;69.00
66057;DHT22;52842;52.666;5.202;2022-11-25T11:27:00;18.80;69.10
66057;DHT22;52842;52.666;5.202;2022-11-25T11:29:27;18.80;69.10
66057;DHT22;52842;52.666;5.202;2022-11-25T11:31:56;18.80;69.10
66057;DHT22;52842;52.666;5.202;2022-11-25T11:34:29;18.70;69.30
66057;DHT22;52842;52.666;5.202;2022-11-25T11:37:04;18.70;69.40
66057;DHT22;52842;52.666;5.202;2022-11-25T11:39:41;18.70;69.50
66057;DHT22;52842;52.666;5.202;2022-11-25T11:42:15;18.70;69.60
66057;DHT22;52842;52.666;5.202;2022-11-25T11:44:51;18.70;69.70
66057;DHT22;52842;52.666;5.202;2022-11-25T11:47:22;18.70;69.70
66057;DHT22;52842;52.666;5.202;2022-11-25T11:52:40;18.70;69.60
66057;DHT22;52842;52.666;5.202;2022-11-25T11:55:15;18.80;69.50
66057;DHT22;52842;52.666;5.202;2022-11-25T11:57:43;18.90;69.10
66057;DHT22;52842;52.666;5.202;2022-11-25T12:00:15;18.90;68.80
66057;DHT22;52842;52.666;5.202;2022-11-25T12:02:48;18.90;68.60
66057;DHT22;52842;52.666;5.202;2022-11-25T12:05:17;19.00;68.40
66057;DHT22;52842;52.666;5.202;2022-11-25T12:07:53;19.00;68.30
66057;DHT22;52842;52.666;5.202;2022-11-25T12:10:23;19.00;68.30
66057;DHT22;52842;52.666;5.202;2022-11-25T12:12:51;18.90;68.40
66057;DHT22;52842;52.666;5.202;2022-11-25T12:15:21;18.90;68.50
66057;DHT22;52842;52.666;5.202;2022-11-25T12:17:50;18.90;68.60
66057;DHT22;52842;52.666;5.202;2022-11-25T12:20:21;18.80;68.70
66057;DHT22;52842;52.666;5.202;2022-11-25T12:22:52;18.80;68.70
66057;DHT22;52842;52.666;5.202;2022-11-25T12:25:24;18.80;68.70
66057;DHT22;52842;52.666;5.202;2022-11-25T12:27:53;18.80;68.90
66057;DHT22;52842;52.666;5.202;2022-11-25T12:30:22;18.80;69.00
66057;DHT22;52842;52.666;5.202;2022-11-25T12:32:51;18.80;69.10
66057;DHT22;52842;52.666;5.202;2022-11-25T12:35:21;18.90;69.20
66057;DHT22;52842;52.666;5.202;2022-11-25T12:37:53;18.90;69.00
66057;DHT22;52842;52.666;5.202;2022-11-25T12:40:23;18.90;68.90
66057;DHT22;52842;52.666;5.202;2022-11-25T12:42:52;19.00;68.70
66057;DHT22;52842;52.666;5.202;2022-11-25T12:45:22;19.00;68.50
66057;DHT22;52842;52.666;5.202;2022-11-25T12:47:49;19.10;68.40
66057;DHT22;52842;52.666;5.202;2022-11-25T12:50:16;19.10;68.30
66057;DHT22;52842;52.666;5.202;2022-11-25T12:52:46;19.10;68.30
66057;DHT22;52842;52.666;5.202;2022-11-25T12:55:22;19.10;68.30
66057;DHT22;52842;52.666;5.202;2022-11-25T12:58:03;19.10;68.30
66057;DHT22;52842;52.666;5.202;2022-11-25T13:00:37;19.10;68.70
66057;DHT22;52842;52.666;5.202;2022-11-25T13:03:15;19.10;68.20
66057;DHT22;52842;52.666;5.202;2022-11-25T13:06:08;19.10;68.10
66057;DHT22;52842;52.666;5.202;2022-11-25T13:08:48;19.10;68.20
66057;DHT22;52842;52.666;5.202;2022-11-25T13:11:34;19.00;68.30
66057;DHT22;52842;52.666;5.202;2022-11-25T13:14:11;19.00;68.60
66057;DHT22;52842;52.666;5.202;2022-11-25T13:16:40;19.00;68.70
66057;DHT22;52842;52.666;5.202;2022-11-25T13:19:07;18.90;68.80
66057;DHT22;52842;52.666;5.202;2022-11-25T13:21:36;18.90;68.90
66057;DHT22;52842;52.666;5.202;2022-11-25T13:24:25;19.00;69.00
66057;DHT22;52842;52.666;5.202;2022-11-25T13:26:53;19.00;68.90
66057;DHT22;52842;52.666;5.202;2022-11-25T13:32:22;19.00;68.70
66057;DHT22;52842;52.666;5.202;2022-11-25T13:34:50;19.00;68.60
66057;DHT22;52842;52.666;5.202;2022-11-25T13:37:37;19.00;68.50
66057;DHT22;52842;52.666;5.202;2022-11-25T13:42:47;19.00;68.60
66057;DHT22;52842;52.666;5.202;2022-11-25T13:45:23;19.00;68.70
66057;DHT22;52842;52.666;5.202;2022-11-25T13:47:51;19.00;68.80
66057;DHT22;52842;52.666;5.202;2022-11-25T13:50:19;19.00;68.80
66057;DHT22;52842;52.666;5.202;2022-11-25T13:52:48;19.00;68.80
66057;DHT22;52842;52.666;5.202;2022-11-25T13:55:23;19.00;68.80
66057;DHT22;52842;52.666;5.202;2022-11-25T13:58:13;19.00;68.80
66057;DHT22;52842;52.666;5.202;2022-11-25T14:06:31;19.00;68.60
66057;DHT22;52842;52.666;5.202;2022-11-25T14:09:01;19.00;68.50
66057;DHT22;52842;52.666;5.202;2022-11-25T14:14:19;19.00;68.40
66057;DHT22;52842;52.666;5.202;2022-11-25T14:16:53;19.00;68.60
66057;DHT22;52842;52.666;5.202;2022-11-25T14:19:32;19.00;68.70
66057;DHT22;52842;52.666;5.202;2022-11-25T14:22:10;18.90;68.80
66057;DHT22;52842;52.666;5.202;2022-11-25T14:24:42;18.90;68.90
66057;DHT22;52842;52.666;5.202;2022-11-25T14:27:13;18.90;68.90
66057;DHT22;52842;52.666;5.202;2022-11-25T14:29:42;18.90;69.00
66057;DHT22;52842;52.666;5.202;2022-11-25T14:32:12;18.90;69.10
66057;DHT22;52842;52.666;5.202;2022-11-25T14:34:40;18.90;69.20
66057;DHT22;52842;52.666;5.202;2022-11-25T14:37:09;18.90;69.20
66057;DHT22;52842;52.666;5.202;2022-11-25T14:39:40;18.90;69.30
66057;DHT22;52842;52.666;5.202;2022-11-25T14:42:08;18.90;69.30
66057;DHT22;52842;52.666;5.202;2022-11-25T14:44:37;18.90;69.30
66057;DHT22;52842;52.666;5.202;2022-11-25T14:47:06;18.90;69.30
66057;DHT22;52842;52.666;5.202;2022-11-25T14:49:42;18.90;69.30
66057;DHT22;52842;52.666;5.202;2022-11-25T14:52:09;19.00;69.40
66057;DHT22;52842;52.666;5.202;2022-11-25T14:54:38;19.10;69.20
66057;DHT22;52842;52.666;5.202;2022-11-25T14:57:05;19.20;68.80
66057;DHT22;52842;52.666;5.202;2022-11-25T14:59:32;19.20;68.40
66057;DHT22;52842;52.666;5.202;2022-11-25T15:01:59;19.30;68.30
66057;DHT22;52842;52.666;5.202;2022-11-25T15:04:31;19.30;68.00
66057;DHT22;52842;52.666;5.202;2022-11-25T15:06:58;19.40;68.00
66057;DHT22;52842;52.666;5.202;2022-11-25T15:09:25;19.40;68.00
66057;DHT22;52842;52.666;5.202;2022-11-25T15:11:55;19.30;68.00
66057;DHT22;52842;52.666;5.202;2022-11-25T15:14:23;19.30;68.20
66057;DHT22;52842;52.666;5.202;2022-11-25T15:16:50;19.30;68.20
66057;DHT22;52842;52.666;5.202;2022-11-25T15:19:18;19.30;68.20
66057;DHT22;52842;52.666;5.202;2022-11-25T15:21:49;19.30;68.30
66057;DHT22;52842;52.666;5.202;2022-11-25T15:24:21;19.20;68.30
66057;DHT22;52842;52.666;5.202;2022-11-25T15:26:49;19.20;68.40
66057;DHT22;52842;52.666;5.202;2022-11-25T15:29:16;19.20;68.50
66057;DHT22;52842;52.666;5.202;2022-11-25T15:31:43;19.20;68.50
66057;DHT22;52842;52.666;5.202;2022-11-25T15:34:11;19.20;68.50
66057;DHT22;52842;52.666;5.202;2022-11-25T15:36:38;19.20;68.40
66057;DHT22;52842;52.666;5.202;2022-11-25T15:39:23;19.20;68.40
66057;DHT22;52842;52.666;5.202;2022-11-25T15:41:52;19.20;68.40
66057;DHT22;52842;52.666;5.202;2022-11-25T15:44:21;19.20;68.40
66057;DHT22;52842;52.666;5.202;2022-11-25T15:46:54;19.20;68.40
66057;DHT22;52842;52.666;5.202;2022-11-25T15:49:21;19.20;68.40
66057;DHT22;52842;52.666;5.202;2022-11-25T15:51:49;19.20;68.40
66057;DHT22;52842;52.666;5.202;2022-11-25T15:54:17;19.20;68.40
66057;DHT22;52842;52.666;5.202;2022-11-25T15:56:47;19.20;68.40
66057;DHT22;52842;52.666;5.202;2022-11-25T16:02:00;19.20;68.30
66057;DHT22;52842;52.666;5.202;2022-11-25T16:04:26;19.20;68.30
66057;DHT22;52842;52.666;5.202;2022-11-25T16:06:53;19.20;68.30